sensor_id;sensor_type;location;lat;lon;timestamp;P1;durP1;ratioP1;P2;durP2;ratioP2
38779;SDS011;29273;49.962;9.768;2022-12-07T00:02:04;3.58;;;3.03;;
38779;SDS011;29273;49.962;9.768;2022-12-07T00:04:29;3.38;;;2.92;;
38779;SDS011;29273;49.962;9.768;2022-12-07T00:06:55;4.53;;;3.42;;
38779;SDS011;29273;49.962;9.768;2022-12-07T00:09:21;3.47;;;3.05;;
38779;SDS011;29273;49.962;9.768;2022-12-07T00:11:50;3.70;;;2.85;;
38779;SDS011;29273;49.962;9.768;2022-12-07T00:14:16;3.58;;;3.08;;
38779;SDS011;29273;49.962;9.768;2022-12-07T00:16:43;5.25;;;3.60;;
38779;SDS011;29273;49.962;9.768;2022-12-07T00:19:10;5.05;;;3.35;;
38779;SDS011;29273;49.962;9.768;2022-12-07T00:21:36;3.78;;;3.30;;
38779;SDS011;29273;49.962;9.768;2022-12-07T00:24:03;3.50;;;3.00;;
38779;SDS011;29273;49.962;9.768;2022-12-07T00:26:30;4.28;;;3.15;;
38779;SDS011;29273;49.962;9.768;2022-12-07T00:29:03;4.10;;;3.38;;
38779;SDS011;29273;49.962;9.768;2022-12-07T00:31:38;3.63;;;3.10;;
38779;SDS011;29273;49.962;9.768;2022-12-07T00:34:07;3.78;;;3.20;;
38779;SDS011;29273;49.962;9.768;2022-12-07T00:36:36;3.65;;;3.17;;
38779;SDS011;29273;49.962;9.768;2022-12-07T00:39:02;3.75;;;3.28;;
38779;SDS011;29273;49.962;9.768;2022-12-07T00:41:28;5.25;;;3.67;;
38779;SDS011;29273;49.962;9.768;2022-12-07T00:43:55;5.25;;;3.60;;
38779;SDS011;29273;49.962;9.768;2022-12-07T00:46:20;4.28;;;3.38;;
38779;SDS011;29273;49.962;9.768;2022-12-07T00:48:47;4.78;;;3.50;;
38779;SDS011;29273;49.962;9.768;2022-12-07T00:51:14;4.25;;;3.75;;
38779;SDS011;29273;49.962;9.768;2022-12-07T00:53:42;3.67;;;3.25;;
38779;SDS011;29273;49.962;9.768;2022-12-07T00:58:40;4.22;;;3.67;;
38779;SDS011;29273;49.962;9.768;2022-12-07T01:01:06;3.65;;;3.22;;
38779;SDS011;29273;49.962;9.768;2022-12-07T01:03:33;4.28;;;3.33;;
38779;SDS011;29273;49.962;9.768;2022-12-07T01:05:59;4.10;;;3.40;;
38779;SDS011;29273;49.962;9.768;2022-12-07T01:08:25;4.03;;;3.10;;
38779;SDS011;29273;49.962;9.768;2022-12-07T01:10:59;4.00;;;3.58;;
38779;SDS011;29273;49.962;9.768;2022-12-07T01:13:26;4.00;;;3.13;;
38779;SDS011;29273;49.962;9.768;2022-12-07T01:15:55;4.30;;;3.53;;
38779;SDS011;29273;49.962;9.768;2022-12-07T01:18:23;4.00;;;3.60;;
38779;SDS011;29273;49.962;9.768;2022-12-07T01:21:02;4.78;;;3.50;;
38779;SDS011;29273;49.962;9.768;2022-12-07T01:23:33;4.50;;;3.63;;
38779;SDS011;29273;49.962;9.768;2022-12-07T01:26:00;4.55;;;3.60;;
38779;SDS011;29273;49.962;9.768;2022-12-07T01:28:28;4.72;;;3.80;;
38779;SDS011;29273;49.962;9.768;2022-12-07T01:33:50;4.97;;;3.72;;
38779;SDS011;29273;49.962;9.768;2022-12-07T01:38:46;4.50;;;3.28;;
38779;SDS011;29273;49.962;9.768;2022-12-07T01:41:14;4.18;;;3.15;;
38779;SDS011;29273;49.962;9.768;2022-12-07T01:46:33;3.72;;;3.33;;
38779;SDS011;29273;49.962;9.768;2022-12-07T01:48:59;3.40;;;3.10;;
38779;SDS011;29273;49.962;9.768;2022-12-07T01:51:25;5.18;;;3.80;;
38779;SDS011;29273;49.962;9.768;2022-12-07T01:53:52;3.90;;;3.38;;
38779;SDS011;29273;49.962;9.768;2022-12-07T01:56:18;4.13;;;3.42;;
38779;SDS011;29273;49.962;9.768;2022-12-07T01:58:49;4.00;;;3.47;;
38779;SDS011;29273;49.962;9.768;2022-12-07T02:01:16;3.78;;;3.38;;
38779;SDS011;29273;49.962;9.768;2022-12-07T02:03:43;3.67;;;3.28;;
38779;SDS011;29273;49.962;9.768;2022-12-07T02:06:10;3.75;;;3.35;;
38779;SDS011;29273;49.962;9.768;2022-12-07T02:08:39;3.33;;;2.90;;
38779;SDS011;29273;49.962;9.768;2022-12-07T02:11:05;3.78;;;3.38;;
38779;SDS011;29273;49.962;9.768;2022-12-07T02:13:33;3.90;;;3.40;;
38779;SDS011;29273;49.962;9.768;2022-12-07T02:19:03;3.85;;;3.22;;
38779;SDS011;29273;49.962;9.768;2022-12-07T02:21:51;3.67;;;2.80;;
38779;SDS011;29273;49.962;9.768;2022-12-07T02:24:40;3.53;;;3.17;;
38779;SDS011;29273;49.962;9.768;2022-12-07T02:27:34;3.97;;;3.40;;
38779;SDS011;29273;49.962;9.768;2022-12-07T02:30:21;4.43;;;3.08;;
38779;SDS011;29273;49.962;9.768;2022-12-07T02:32:55;4.75;;;3.70;;
38779;SDS011;29273;49.962;9.768;2022-12-07T02:38:16;4.75;;;3.50;;
38779;SDS011;29273;49.962;9.768;2022-12-07T02:40:54;4.38;;;3.60;;
38779;SDS011;29273;49.962;9.768;2022-12-07T02:43:26;4.95;;;3.83;;
38779;SDS011;29273;49.962;9.768;2022-12-07T02:46:04;3.63;;;3.30;;
38779;SDS011;29273;49.962;9.768;2022-12-07T02:48:34;4.57;;;3.60;;
38779;SDS011;29273;49.962;9.768;2022-12-07T02:51:03;3.80;;;3.17;;
38779;SDS011;29273;49.962;9.768;2022-12-07T02:53:39;4.38;;;3.53;;
38779;SDS011;29273;49.962;9.768;2022-12-07T03:01:54;5.90;;;4.05;;
38779;SDS011;29273;49.962;9.768;2022-12-07T03:04:39;5.80;;;3.70;;
38779;SDS011;29273;49.962;9.768;2022-12-07T03:07:11;4.43;;;3.97;;
38779;SDS011;29273;49.962;9.768;2022-12-07T03:09:55;5.18;;;4.20;;
38779;SDS011;29273;49.962;9.768;2022-12-07T03:12:29;4.88;;;3.78;;
38779;SDS011;29273;49.962;9.768;2022-12-07T03:15:08;5.50;;;4.28;;
38779;SDS011;29273;49.962;9.768;2022-12-07T03:17:39;4.45;;;3.85;;
38779;SDS011;29273;49.962;9.768;2022-12-07T03:20:09;4.80;;;4.03;;
38779;SDS011;29273;49.962;9.768;2022-12-07T03:22:38;5.65;;;4.32;;
38779;SDS011;29273;49.962;9.768;2022-12-07T03:25:09;6.10;;;4.07;;
38779;SDS011;29273;49.962;9.768;2022-12-07T03:30:19;5.18;;;4.07;;
38779;SDS011;29273;49.962;9.768;2022-12-07T03:38:22;5.38;;;3.97;;
38779;SDS011;29273;49.962;9.768;2022-12-07T03:40:54;5.32;;;3.85;;
38779;SDS011;29273;49.962;9.768;2022-12-07T03:43:27;5.47;;;4.10;;
38779;SDS011;29273;49.962;9.768;2022-12-07T03:53:51;4.82;;;3.78;;
38779;SDS011;29273;49.962;9.768;2022-12-07T03:56:22;5.18;;;4.32;;
38779;SDS011;29273;49.962;9.768;2022-12-07T03:58:50;5.20;;;3.80;;
38779;SDS011;29273;49.962;9.768;2022-12-07T04:01:17;4.40;;;3.42;;
38779;SDS011;29273;49.962;9.768;2022-12-07T04:03:43;5.00;;;3.95;;
38779;SDS011;29273;49.962;9.768;2022-12-07T04:06:08;5.10;;;4.18;;
38779;SDS011;29273;49.962;9.768;2022-12-07T04:08:34;5.75;;;4.05;;
38779;SDS011;29273;49.962;9.768;2022-12-07T04:10:59;4.32;;;3.80;;
38779;SDS011;29273;49.962;9.768;2022-12-07T04:13:26;4.30;;;3.58;;
38779;SDS011;29273;49.962;9.768;2022-12-07T04:15:51;4.82;;;3.67;;
38779;SDS011;29273;49.962;9.768;2022-12-07T04:18:16;4.57;;;3.33;;
38779;SDS011;29273;49.962;9.768;2022-12-07T04:20:42;4.00;;;3.40;;
38779;SDS011;29273;49.962;9.768;2022-12-07T04:23:07;4.32;;;3.55;;
38779;SDS011;29273;49.962;9.768;2022-12-07T04:25:33;4.47;;;3.67;;
38779;SDS011;29273;49.962;9.768;2022-12-07T04:27:58;4.72;;;3.30;;
38779;SDS011;29273;49.962;9.768;2022-12-07T04:30:24;4.18;;;3.35;;
38779;SDS011;29273;49.962;9.768;2022-12-07T04:32:50;3.92;;;3.00;;
38779;SDS011;29273;49.962;9.768;2022-12-07T04:35:15;3.90;;;3.13;;
38779;SDS011;29273;49.962;9.768;2022-12-07T04:37:41;3.80;;;3.40;;
38779;SDS011;29273;49.962;9.768;2022-12-07T04:40:09;3.92;;;3.38;;
38779;SDS011;29273;49.962;9.768;2022-12-07T04:42:36;4.68;;;3.67;;
38779;SDS011;29273;49.962;9.768;2022-12-07T04:45:02;4.78;;;3.72;;
38779;SDS011;29273;49.962;9.768;2022-12-07T04:47:28;4.32;;;3.70;;
38779;SDS011;29273;49.962;9.768;2022-12-07T04:49:54;4.88;;;3.40;;
38779;SDS011;29273;49.962;9.768;2022-12-07T04:52:19;4.65;;;4.00;;
38779;SDS011;29273;49.962;9.768;2022-12-07T04:54:45;5.05;;;3.83;;
38779;SDS011;29273;49.962;9.768;2022-12-07T04:57:10;5.38;;;4.32;;
38779;SDS011;29273;49.962;9.768;2022-12-07T04:59:36;5.93;;;3.97;;
38779;SDS011;29273;49.962;9.768;2022-12-07T05:02:01;4.53;;;3.65;;
38779;SDS011;29273;49.962;9.768;2022-12-07T05:04:27;4.07;;;3.58;;
38779;SDS011;29273;49.962;9.768;2022-12-07T05:06:52;3.90;;;3.50;;
38779;SDS011;29273;49.962;9.768;2022-12-07T05:09:18;4.28;;;3.53;;
38779;SDS011;29273;49.962;9.768;2022-12-07T05:11:43;3.78;;;3.30;;
38779;SDS011;29273;49.962;9.768;2022-12-07T05:16:37;4.03;;;3.40;;
38779;SDS011;29273;49.962;9.768;2022-12-07T05:19:03;3.70;;;3.22;;
38779;SDS011;29273;49.962;9.768;2022-12-07T05:21:30;3.97;;;3.33;;
38779;SDS011;29273;49.962;9.768;2022-12-07T05:23:55;4.93;;;3.95;;
38779;SDS011;29273;49.962;9.768;2022-12-07T05:26:21;3.80;;;3.38;;
38779;SDS011;29273;49.962;9.768;2022-12-07T05:28:50;3.58;;;3.10;;
38779;SDS011;29273;49.962;9.768;2022-12-07T05:31:16;3.38;;;3.08;;
38779;SDS011;29273;49.962;9.768;2022-12-07T05:33:42;4.80;;;3.45;;
38779;SDS011;29273;49.962;9.768;2022-12-07T05:36:07;3.88;;;3.47;;
38779;SDS011;29273;49.962;9.768;2022-12-07T05:38:33;4.15;;;3.55;;
38779;SDS011;29273;49.962;9.768;2022-12-07T05:41:02;3.15;;;2.85;;
38779;SDS011;29273;49.962;9.768;2022-12-07T05:43:29;4.25;;;3.63;;
38779;SDS011;29273;49.962;9.768;2022-12-07T05:45:55;4.13;;;3.53;;
38779;SDS011;29273;49.962;9.768;2022-12-07T05:48:21;3.50;;;2.83;;
38779;SDS011;29273;49.962;9.768;2022-12-07T05:50:47;3.38;;;2.92;;
38779;SDS011;29273;49.962;9.768;2022-12-07T05:53:14;3.45;;;3.05;;
38779;SDS011;29273;49.962;9.768;2022-12-07T05:55:40;4.03;;;3.63;;
38779;SDS011;29273;49.962;9.768;2022-12-07T05:58:05;4.40;;;3.80;;
38779;SDS011;29273;49.962;9.768;2022-12-07T06:00:49;4.28;;;3.13;;
38779;SDS011;29273;49.962;9.768;2022-12-07T06:03:15;4.05;;;3.45;;
38779;SDS011;29273;49.962;9.768;2022-12-07T06:05:40;4.30;;;3.35;;
38779;SDS011;29273;49.962;9.768;2022-12-07T06:08:06;4.47;;;3.40;;
38779;SDS011;29273;49.962;9.768;2022-12-07T06:10:32;4.82;;;3.50;;
38779;SDS011;29273;49.962;9.768;2022-12-07T06:12:58;3.72;;;3.15;;
38779;SDS011;29273;49.962;9.768;2022-12-07T06:15:24;3.88;;;3.38;;
38779;SDS011;29273;49.962;9.768;2022-12-07T06:17:49;4.63;;;3.50;;
38779;SDS011;29273;49.962;9.768;2022-12-07T06:20:15;4.20;;;3.40;;
38779;SDS011;29273;49.962;9.768;2022-12-07T06:22:41;4.75;;;3.53;;
38779;SDS011;29273;49.962;9.768;2022-12-07T06:25:06;3.83;;;2.95;;
38779;SDS011;29273;49.962;9.768;2022-12-07T06:27:32;3.75;;;2.85;;
38779;SDS011;29273;49.962;9.768;2022-12-07T06:29:58;3.50;;;2.83;;
38779;SDS011;29273;49.962;9.768;2022-12-07T06:32:24;3.13;;;2.78;;
38779;SDS011;29273;49.962;9.768;2022-12-07T06:34:49;3.20;;;2.90;;
38779;SDS011;29273;49.962;9.768;2022-12-07T06:37:15;2.53;;;2.25;;
38779;SDS011;29273;49.962;9.768;2022-12-07T06:39:40;2.88;;;2.47;;
38779;SDS011;29273;49.962;9.768;2022-12-07T06:42:06;3.20;;;2.53;;
38779;SDS011;29273;49.962;9.768;2022-12-07T06:44:31;2.80;;;2.47;;
38779;SDS011;29273;49.962;9.768;2022-12-07T06:46:57;3.38;;;2.80;;
38779;SDS011;29273;49.962;9.768;2022-12-07T06:49:23;3.45;;;2.80;;
38779;SDS011;29273;49.962;9.768;2022-12-07T06:51:48;2.85;;;2.47;;
38779;SDS011;29273;49.962;9.768;2022-12-07T06:54:14;2.97;;;2.60;;
38779;SDS011;29273;49.962;9.768;2022-12-07T06:56:40;3.25;;;2.45;;
38779;SDS011;29273;49.962;9.768;2022-12-07T06:59:06;3.63;;;3.05;;
38779;SDS011;29273;49.962;9.768;2022-12-07T07:01:33;3.28;;;2.92;;
38779;SDS011;29273;49.962;9.768;2022-12-07T07:03:59;3.13;;;2.83;;
38779;SDS011;29273;49.962;9.768;2022-12-07T07:06:25;3.22;;;2.92;;
38779;SDS011;29273;49.962;9.768;2022-12-07T07:08:50;3.72;;;3.00;;
38779;SDS011;29273;49.962;9.768;2022-12-07T07:11:16;3.85;;;3.20;;
38779;SDS011;29273;49.962;9.768;2022-12-07T07:13:42;3.72;;;3.03;;
38779;SDS011;29273;49.962;9.768;2022-12-07T07:16:07;3.75;;;3.05;;
38779;SDS011;29273;49.962;9.768;2022-12-07T07:18:33;4.35;;;3.13;;
38779;SDS011;29273;49.962;9.768;2022-12-07T07:20:59;3.88;;;3.10;;
38779;SDS011;29273;49.962;9.768;2022-12-07T07:23:26;3.90;;;3.45;;
38779;SDS011;29273;49.962;9.768;2022-12-07T07:25:51;4.32;;;3.63;;
38779;SDS011;29273;49.962;9.768;2022-12-07T07:28:17;3.90;;;3.40;;
38779;SDS011;29273;49.962;9.768;2022-12-07T07:30:42;3.85;;;3.42;;
38779;SDS011;29273;49.962;9.768;2022-12-07T07:33:09;4.53;;;3.00;;
38779;SDS011;29273;49.962;9.768;2022-12-07T07:35:35;3.42;;;2.90;;
38779;SDS011;29273;49.962;9.768;2022-12-07T07:38:01;4.05;;;2.97;;
38779;SDS011;29273;49.962;9.768;2022-12-07T07:40:27;3.97;;;3.28;;
38779;SDS011;29273;49.962;9.768;2022-12-07T07:42:56;3.55;;;3.10;;
38779;SDS011;29273;49.962;9.768;2022-12-07T07:45:23;3.20;;;2.83;;
38779;SDS011;29273;49.962;9.768;2022-12-07T07:47:49;3.53;;;3.22;;
38779;SDS011;29273;49.962;9.768;2022-12-07T07:50:16;3.80;;;3.40;;
38779;SDS011;29273;49.962;9.768;2022-12-07T07:52:42;3.53;;;3.03;;
38779;SDS011;29273;49.962;9.768;2022-12-07T07:55:08;4.80;;;3.60;;
38779;SDS011;29273;49.962;9.768;2022-12-07T07:57:37;3.63;;;3.20;;
38779;SDS011;29273;49.962;9.768;2022-12-07T08:00:05;3.92;;;3.28;;
38779;SDS011;29273;49.962;9.768;2022-12-07T08:02:37;3.25;;;2.95;;
38779;SDS011;29273;49.962;9.768;2022-12-07T08:05:03;3.70;;;3.28;;
38779;SDS011;29273;49.962;9.768;2022-12-07T08:07:29;5.53;;;3.42;;
38779;SDS011;29273;49.962;9.768;2022-12-07T08:09:55;4.28;;;3.50;;
38779;SDS011;29273;49.962;9.768;2022-12-07T08:12:20;4.68;;;4.15;;
38779;SDS011;29273;49.962;9.768;2022-12-07T08:14:45;4.63;;;3.55;;
38779;SDS011;29273;49.962;9.768;2022-12-07T08:17:12;4.80;;;3.88;;
38779;SDS011;29273;49.962;9.768;2022-12-07T08:19:37;5.15;;;3.80;;
38779;SDS011;29273;49.962;9.768;2022-12-07T08:22:03;4.57;;;3.80;;
38779;SDS011;29273;49.962;9.768;2022-12-07T08:24:28;5.10;;;4.10;;
38779;SDS011;29273;49.962;9.768;2022-12-07T08:26:54;4.60;;;3.83;;
38779;SDS011;29273;49.962;9.768;2022-12-07T08:29:19;4.57;;;3.35;;
38779;SDS011;29273;49.962;9.768;2022-12-07T08:31:45;4.15;;;3.65;;
38779;SDS011;29273;49.962;9.768;2022-12-07T08:34:11;4.28;;;3.67;;
38779;SDS011;29273;49.962;9.768;2022-12-07T08:36:37;4.35;;;3.63;;
38779;SDS011;29273;49.962;9.768;2022-12-07T08:39:03;5.25;;;4.25;;
38779;SDS011;29273;49.962;9.768;2022-12-07T08:41:28;4.00;;;3.58;;
38779;SDS011;29273;49.962;9.768;2022-12-07T08:43:54;4.63;;;3.38;;
38779;SDS011;29273;49.962;9.768;2022-12-07T08:46:21;4.53;;;3.40;;
38779;SDS011;29273;49.962;9.768;2022-12-07T08:48:53;3.45;;;3.13;;
38779;SDS011;29273;49.962;9.768;2022-12-07T08:51:23;4.35;;;3.60;;
38779;SDS011;29273;49.962;9.768;2022-12-07T08:53:51;4.03;;;3.38;;
38779;SDS011;29273;49.962;9.768;2022-12-07T08:56:18;4.10;;;3.63;;
38779;SDS011;29273;49.962;9.768;2022-12-07T08:58:44;4.03;;;3.47;;
38779;SDS011;29273;49.962;9.768;2022-12-07T09:01:10;4.57;;;3.85;;
38779;SDS011;29273;49.962;9.768;2022-12-07T09:03:35;4.18;;;3.65;;
38779;SDS011;29273;49.962;9.768;2022-12-07T09:06:01;3.75;;;3.28;;
38779;SDS011;29273;49.962;9.768;2022-12-07T09:08:29;4.38;;;3.40;;
38779;SDS011;29273;49.962;9.768;2022-12-07T09:10:59;4.35;;;3.40;;
38779;SDS011;29273;49.962;9.768;2022-12-07T09:13:24;3.47;;;3.13;;
38779;SDS011;29273;49.962;9.768;2022-12-07T09:15:50;3.75;;;2.97;;
38779;SDS011;29273;49.962;9.768;2022-12-07T09:18:15;3.47;;;3.08;;
38779;SDS011;29273;49.962;9.768;2022-12-07T09:20:41;4.03;;;3.33;;
38779;SDS011;29273;49.962;9.768;2022-12-07T09:23:06;3.47;;;3.15;;
38779;SDS011;29273;49.962;9.768;2022-12-07T09:25:32;3.90;;;3.28;;
38779;SDS011;29273;49.962;9.768;2022-12-07T09:27:59;3.70;;;3.30;;
38779;SDS011;29273;49.962;9.768;2022-12-07T09:30:26;4.20;;;3.45;;
38779;SDS011;29273;49.962;9.768;2022-12-07T09:32:52;4.68;;;3.53;;
38779;SDS011;29273;49.962;9.768;2022-12-07T09:35:19;4.82;;;3.58;;
38779;SDS011;29273;49.962;9.768;2022-12-07T09:37:44;3.78;;;3.47;;
38779;SDS011;29273;49.962;9.768;2022-12-07T09:40:10;5.35;;;3.65;;
38779;SDS011;29273;49.962;9.768;2022-12-07T09:42:37;4.28;;;3.75;;
38779;SDS011;29273;49.962;9.768;2022-12-07T09:45:13;4.20;;;3.30;;
38779;SDS011;29273;49.962;9.768;2022-12-07T09:47:41;3.90;;;3.47;;
38779;SDS011;29273;49.962;9.768;2022-12-07T09:50:12;4.10;;;3.70;;
38779;SDS011;29273;49.962;9.768;2022-12-07T09:52:40;4.22;;;3.72;;
38779;SDS011;29273;49.962;9.768;2022-12-07T09:55:09;3.67;;;3.38;;
38779;SDS011;29273;49.962;9.768;2022-12-07T09:57:37;4.63;;;3.42;;
38779;SDS011;29273;49.962;9.768;2022-12-07T10:00:13;4.05;;;3.47;;
38779;SDS011;29273;49.962;9.768;2022-12-07T10:02:47;4.50;;;3.75;;
38779;SDS011;29273;49.962;9.768;2022-12-07T10:05:18;4.25;;;2.92;;
38779;SDS011;29273;49.962;9.768;2022-12-07T10:07:52;4.72;;;3.65;;
38779;SDS011;29273;49.962;9.768;2022-12-07T10:10:25;4.38;;;3.67;;
38779;SDS011;29273;49.962;9.768;2022-12-07T10:12:59;4.60;;;3.50;;
38779;SDS011;29273;49.962;9.768;2022-12-07T10:21:00;3.95;;;3.42;;
38779;SDS011;29273;49.962;9.768;2022-12-07T10:23:37;6.10;;;3.05;;
38779;SDS011;29273;49.962;9.768;2022-12-07T10:26:28;3.28;;;2.67;;
38779;SDS011;29273;49.962;9.768;2022-12-07T10:28:58;3.78;;;3.00;;
38779;SDS011;29273;49.962;9.768;2022-12-07T10:31:25;3.55;;;3.08;;
38779;SDS011;29273;49.962;9.768;2022-12-07T10:33:52;4.53;;;3.05;;
38779;SDS011;29273;49.962;9.768;2022-12-07T10:38:58;3.17;;;2.88;;
38779;SDS011;29273;49.962;9.768;2022-12-07T10:41:26;3.15;;;2.80;;
38779;SDS011;29273;49.962;9.768;2022-12-07T10:43:53;3.85;;;3.15;;
38779;SDS011;29273;49.962;9.768;2022-12-07T10:46:24;4.00;;;3.30;;
38779;SDS011;29273;49.962;9.768;2022-12-07T10:49:10;5.15;;;3.53;;
38779;SDS011;29273;49.962;9.768;2022-12-07T10:52:01;3.28;;;2.97;;
38779;SDS011;29273;49.962;9.768;2022-12-07T10:57:38;2.65;;;2.38;;
38779;SDS011;29273;49.962;9.768;2022-12-07T11:00:19;3.15;;;2.42;;
38779;SDS011;29273;49.962;9.768;2022-12-07T11:02:54;3.15;;;2.72;;
38779;SDS011;29273;49.962;9.768;2022-12-07T11:05:42;3.58;;;2.75;;
38779;SDS011;29273;49.962;9.768;2022-12-07T11:10:52;3.30;;;2.72;;
38779;SDS011;29273;49.962;9.768;2022-12-07T11:13:28;3.10;;;2.70;;
38779;SDS011;29273;49.962;9.768;2022-12-07T11:18:41;2.70;;;2.35;;
38779;SDS011;29273;49.962;9.768;2022-12-07T11:21:16;3.30;;;2.70;;
38779;SDS011;29273;49.962;9.768;2022-12-07T11:24:00;2.95;;;2.35;;
38779;SDS011;29273;49.962;9.768;2022-12-07T11:26:43;3.88;;;2.47;;
38779;SDS011;29273;49.962;9.768;2022-12-07T11:37:16;3.35;;;2.15;;
38779;SDS011;29273;49.962;9.768;2022-12-07T11:39:49;3.15;;;2.40;;
38779;SDS011;29273;49.962;9.768;2022-12-07T11:42:21;2.35;;;2.03;;
38779;SDS011;29273;49.962;9.768;2022-12-07T11:47:30;2.42;;;2.10;;
38779;SDS011;29273;49.962;9.768;2022-12-07T11:50:25;2.28;;;2.00;;
38779;SDS011;29273;49.962;9.768;2022-12-07T11:55:40;2.25;;;2.05;;
38779;SDS011;29273;49.962;9.768;2022-12-07T11:58:51;3.05;;;2.13;;
38779;SDS011;29273;49.962;9.768;2022-12-07T12:01:07;3.17;;;2.53;;
38779;SDS011;29273;49.962;9.768;2022-12-07T12:03:49;3.20;;;2.30;;
38779;SDS011;29273;49.962;9.768;2022-12-07T12:06:17;2.58;;;2.30;;
38779;SDS011;29273;49.962;9.768;2022-12-07T12:08:46;2.60;;;2.40;;
38779;SDS011;29273;49.962;9.768;2022-12-07T12:19:22;3.10;;;2.50;;
38779;SDS011;29273;49.962;9.768;2022-12-07T12:21:56;2.75;;;2.53;;
38779;SDS011;29273;49.962;9.768;2022-12-07T12:24:29;2.13;;;1.90;;
38779;SDS011;29273;49.962;9.768;2022-12-07T12:27:03;2.58;;;2.20;;
38779;SDS011;29273;49.962;9.768;2022-12-07T12:29:34;2.60;;;2.15;;
38779;SDS011;29273;49.962;9.768;2022-12-07T12:42:58;2.05;;;1.85;;
38779;SDS011;29273;49.962;9.768;2022-12-07T12:45:28;2.38;;;1.90;;
38779;SDS011;29273;49.962;9.768;2022-12-07T12:48:01;2.03;;;1.83;;
38779;SDS011;29273;49.962;9.768;2022-12-07T12:55:50;2.60;;;2.08;;
38779;SDS011;29273;49.962;9.768;2022-12-07T12:58:41;2.90;;;2.20;;
38779;SDS011;29273;49.962;9.768;2022-12-07T13:04:27;3.45;;;2.17;;
38779;SDS011;29273;49.962;9.768;2022-12-07T13:06:59;2.80;;;2.08;;
38779;SDS011;29273;49.962;9.768;2022-12-07T13:09:28;3.42;;;2.35;;
38779;SDS011;29273;49.962;9.768;2022-12-07T13:11:58;3.35;;;2.53;;
38779;SDS011;29273;49.962;9.768;2022-12-07T13:17:10;3.60;;;2.55;;
38779;SDS011;29273;49.962;9.768;2022-12-07T13:24:56;2.55;;;2.05;;
38779;SDS011;29273;49.962;9.768;2022-12-07T13:27:23;4.95;;;2.50;;
38779;SDS011;29273;49.962;9.768;2022-12-07T13:29:52;3.53;;;2.30;;
38779;SDS011;29273;49.962;9.768;2022-12-07T13:32:24;3.10;;;2.17;;
38779;SDS011;29273;49.962;9.768;2022-12-07T13:34:53;3.08;;;2.40;;
38779;SDS011;29273;49.962;9.768;2022-12-07T13:39:52;4.30;;;2.63;;
38779;SDS011;29273;49.962;9.768;2022-12-07T13:42:31;4.00;;;2.67;;
38779;SDS011;29273;49.962;9.768;2022-12-07T13:44:59;2.38;;;1.98;;
38779;SDS011;29273;49.962;9.768;2022-12-07T13:47:48;2.53;;;1.70;;
38779;SDS011;29273;49.962;9.768;2022-12-07T13:50:28;4.18;;;2.05;;
38779;SDS011;29273;49.962;9.768;2022-12-07T13:52:59;2.33;;;1.90;;
38779;SDS011;29273;49.962;9.768;2022-12-07T13:55:26;2.63;;;1.67;;
38779;SDS011;29273;49.962;9.768;2022-12-07T13:57:53;2.60;;;1.80;;
38779;SDS011;29273;49.962;9.768;2022-12-07T14:00:26;3.38;;;1.98;;
38779;SDS011;29273;49.962;9.768;2022-12-07T14:02:58;1.98;;;1.77;;
38779;SDS011;29273;49.962;9.768;2022-12-07T14:07:57;2.15;;;1.42;;
38779;SDS011;29273;49.962;9.768;2022-12-07T14:10:29;1.73;;;1.60;;
38779;SDS011;29273;49.962;9.768;2022-12-07T14:12:56;2.53;;;1.80;;
38779;SDS011;29273;49.962;9.768;2022-12-07T14:15:26;2.92;;;2.08;;
38779;SDS011;29273;49.962;9.768;2022-12-07T14:17:56;2.30;;;1.98;;
38779;SDS011;29273;49.962;9.768;2022-12-07T14:21:01;2.70;;;2.05;;
38779;SDS011;29273;49.962;9.768;2022-12-07T14:23:22;2.90;;;2.13;;
38779;SDS011;29273;49.962;9.768;2022-12-07T14:25:51;3.92;;;2.60;;
38779;SDS011;29273;49.962;9.768;2022-12-07T14:28:25;3.63;;;2.70;;
38779;SDS011;29273;49.962;9.768;2022-12-07T14:30:52;3.88;;;2.45;;
38779;SDS011;29273;49.962;9.768;2022-12-07T14:33:17;3.55;;;2.50;;
38779;SDS011;29273;49.962;9.768;2022-12-07T14:35:44;3.47;;;2.42;;
38779;SDS011;29273;49.962;9.768;2022-12-07T14:38:09;2.95;;;2.47;;
38779;SDS011;29273;49.962;9.768;2022-12-07T14:40:35;3.47;;;2.30;;
38779;SDS011;29273;49.962;9.768;2022-12-07T14:43:02;3.05;;;2.20;;
38779;SDS011;29273;49.962;9.768;2022-12-07T14:45:31;2.10;;;1.90;;
38779;SDS011;29273;49.962;9.768;2022-12-07T14:47:57;2.42;;;1.80;;
38779;SDS011;29273;49.962;9.768;2022-12-07T14:50:23;1.88;;;1.67;;
38779;SDS011;29273;49.962;9.768;2022-12-07T14:52:54;2.97;;;1.90;;
38779;SDS011;29273;49.962;9.768;2022-12-07T14:57:53;2.38;;;1.90;;
38779;SDS011;29273;49.962;9.768;2022-12-07T15:00:20;2.50;;;1.83;;
38779;SDS011;29273;49.962;9.768;2022-12-07T15:02:48;2.97;;;2.08;;
38779;SDS011;29273;49.962;9.768;2022-12-07T15:05:14;2.53;;;1.73;;
38779;SDS011;29273;49.962;9.768;2022-12-07T15:07:40;2.92;;;1.98;;
38779;SDS011;29273;49.962;9.768;2022-12-07T15:10:06;2.78;;;2.17;;
38779;SDS011;29273;49.962;9.768;2022-12-07T15:12:40;2.38;;;1.65;;
38779;SDS011;29273;49.962;9.768;2022-12-07T15:15:05;3.28;;;1.85;;
38779;SDS011;29273;49.962;9.768;2022-12-07T15:17:31;2.63;;;1.73;;
38779;SDS011;29273;49.962;9.768;2022-12-07T15:19:56;2.45;;;1.90;;
38779;SDS011;29273;49.962;9.768;2022-12-07T15:22:22;1.88;;;1.63;;
38779;SDS011;29273;49.962;9.768;2022-12-07T15:24:47;3.70;;;1.98;;
38779;SDS011;29273;49.962;9.768;2022-12-07T15:27:13;2.15;;;1.70;;
38779;SDS011;29273;49.962;9.768;2022-12-07T15:29:38;2.00;;;1.50;;
38779;SDS011;29273;49.962;9.768;2022-12-07T15:32:04;2.00;;;1.60;;
38779;SDS011;29273;49.962;9.768;2022-12-07T15:34:30;2.08;;;1.58;;
38779;SDS011;29273;49.962;9.768;2022-12-07T15:36:56;2.42;;;1.52;;
38779;SDS011;29273;49.962;9.768;2022-12-07T15:39:22;1.75;;;1.40;;
38779;SDS011;29273;49.962;9.768;2022-12-07T15:41:48;2.25;;;1.70;;
38779;SDS011;29273;49.962;9.768;2022-12-07T15:44:13;3.58;;;1.70;;
38779;SDS011;29273;49.962;9.768;2022-12-07T15:46:59;1.92;;;1.73;;
38779;SDS011;29273;49.962;9.768;2022-12-07T15:49:25;1.80;;;1.42;;
38779;SDS011;29273;49.962;9.768;2022-12-07T15:51:51;2.33;;;1.77;;
38779;SDS011;29273;49.962;9.768;2022-12-07T15:54:20;2.00;;;1.52;;
38779;SDS011;29273;49.962;9.768;2022-12-07T15:56:49;2.17;;;1.70;;
38779;SDS011;29273;49.962;9.768;2022-12-07T15:59:14;2.15;;;1.58;;
38779;SDS011;29273;49.962;9.768;2022-12-07T16:01:40;1.60;;;1.50;;
38779;SDS011;29273;49.962;9.768;2022-12-07T16:04:06;2.17;;;1.73;;
38779;SDS011;29273;49.962;9.768;2022-12-07T16:06:31;2.22;;;1.70;;
38779;SDS011;29273;49.962;9.768;2022-12-07T16:08:57;5.82;;;2.10;;
38779;SDS011;29273;49.962;9.768;2022-12-07T16:11:22;2.00;;;1.80;;
38779;SDS011;29273;49.962;9.768;2022-12-07T16:13:48;3.13;;;2.20;;
38779;SDS011;29273;49.962;9.768;2022-12-07T16:16:14;3.00;;;2.38;;
38779;SDS011;29273;49.962;9.768;2022-12-07T16:18:42;3.47;;;2.22;;
38779;SDS011;29273;49.962;9.768;2022-12-07T16:21:09;3.38;;;1.88;;
38779;SDS011;29273;49.962;9.768;2022-12-07T16:23:34;2.13;;;1.83;;
38779;SDS011;29273;49.962;9.768;2022-12-07T16:26:20;3.20;;;2.40;;
38779;SDS011;29273;49.962;9.768;2022-12-07T16:28:50;2.63;;;2.20;;
38779;SDS011;29273;49.962;9.768;2022-12-07T16:31:17;2.58;;;2.25;;
38779;SDS011;29273;49.962;9.768;2022-12-07T16:33:45;2.65;;;2.40;;
38779;SDS011;29273;49.962;9.768;2022-12-07T16:36:11;2.72;;;2.13;;
38779;SDS011;29273;49.962;9.768;2022-12-07T16:38:38;3.25;;;2.40;;
38779;SDS011;29273;49.962;9.768;2022-12-07T16:41:04;2.53;;;1.90;;
38779;SDS011;29273;49.962;9.768;2022-12-07T16:43:31;2.83;;;2.00;;
38779;SDS011;29273;49.962;9.768;2022-12-07T16:45:57;2.38;;;2.00;;
38779;SDS011;29273;49.962;9.768;2022-12-07T16:48:22;1.67;;;1.52;;
38779;SDS011;29273;49.962;9.768;2022-12-07T16:50:48;2.35;;;1.92;;
38779;SDS011;29273;49.962;9.768;2022-12-07T16:53:14;2.83;;;2.13;;